Time;durP1;ratioP1;P1;durP2;ratioP2;P2;SDS_P1;SDS_P2;PMS_P1;PMS_P2;Temp;Humidity;BMP_temperature;BMP_pressure;BME280_temperature;BME280_humidity;BME280_pressure;Samples;Min_cycle;Max_cycle;Signal;HPM_P1;HPM_P2
2023/09/17 00:00:12;;;;;;;;;;;19.70;60.80;;;15.69;100.00;95462.78;5032389;28;19912;-47
2023/09/17 00:02:37;;;;;;;;;;;19.70;60.80;;;15.71;100.00;95459.81;5032616;28;19927;-49
2023/09/17 00:05:04;;;;;;;;;;;19.80;60.90;;;15.71;100.00;95465.97;5029691;28;19909;-48
2023/09/17 00:07:30;;;;;;;;;;;19.80;60.90;;;15.76;100.00;95461.59;5032364;28;20291;-50
2023/09/17 00:09:56;;;;;;;;;;;19.80;61.00;;;15.80;100.00;95463.38;5029768;28;19913;-49
2023/09/17 00:12:22;;;;;;;;;;;19.80;61.00;;;15.83;100.00;95470.06;5032946;28;19909;-50
2023/09/17 00:14:49;;;;;;;;;;;19.90;61.10;;;15.87;100.00;95465.66;5023453;28;20071;-47
2023/09/17 00:17:15;;;;;;;;;;;19.90;61.20;;;15.94;100.00;95472.19;5009338;28;19909;-48
2023/09/17 00:19:41;;;;;;;;;;;19.90;61.10;;;15.99;100.00;95468.63;5031033;28;19935;-48
2023/09/17 00:22:11;;;;;;;;;;;19.90;62.00;;;16.04;100.00;95470.41;5029717;28;19909;-46
2023/09/17 00:24:37;;;;;;;;;;;20.00;61.20;;;16.03;100.00;95466.13;5030025;28;19908;-47
2023/09/17 00:27:03;;;;;;;;;;;20.10;61.30;;;16.10;100.00;95471.88;5030995;28;20386;-47
2023/09/17 00:29:29;;;;;;;;;;;20.10;61.30;;;16.12;100.00;95461.63;5031137;28;19965;-47
2023/09/17 00:31:55;;;;;;;;;;;20.10;61.30;;;16.14;100.00;95456.75;5032253;28;19912;-47
2023/09/17 00:34:20;;;;;;;;;;;20.20;61.40;;;16.19;100.00;95460.09;5026723;28;19944;-51
2023/09/17 00:36:46;;;;;;;;;;;20.20;61.40;;;16.26;100.00;95453.53;5032325;28;19909;-46
2023/09/17 00:39:12;;;;;;;;;;;20.20;61.40;;;16.27;100.00;95458.59;5028950;28;19964;-47
2023/09/17 00:41:37;;;;;;;;;;;20.30;61.40;;;16.31;100.00;95461.47;5032226;28;19961;-47
2023/09/17 00:44:04;;;;;;;;;;;20.30;61.40;;;16.32;100.00;95468.44;5031439;28;20020;-45
2023/09/17 00:46:31;;;;;;;;;;;20.40;61.50;;;16.33;100.00;95465.47;5027163;28;20014;-48
2023/09/17 00:48:58;;;;;;;;;;;20.30;61.40;;;16.38;100.00;95467.22;5026664;28;19982;-45
2023/09/17 00:51:25;;;;;;;;;;;20.40;61.50;;;16.44;100.00;95468.69;5027331;28;19913;-44
2023/09/17 00:53:55;;;;;;;;;;;20.40;61.50;;;16.45;100.00;95472.97;5031419;28;20287;-46
2023/09/17 00:56:23;;;;;;;;;;;20.50;61.60;;;16.46;100.00;95474.56;5031720;28;19942;-46
2023/09/17 00:58:50;;;;;;;;;;;20.50;61.50;;;16.46;100.00;95479.16;5026251;28;19909;-45
2023/09/17 01:01:16;;;;;;;;;;;20.50;61.50;;;16.46;100.00;95479.94;5031554;28;19909;-45
2023/09/17 01:03:42;;;;;;;;;;;20.60;61.50;;;16.51;100.00;95473.66;5027812;28;19909;-45
2023/09/17 01:06:11;;;;;;;;;;;20.60;61.50;;;16.51;100.00;95473.66;5031420;28;20422;-45
2023/09/17 01:08:39;;;;;;;;;;;20.60;61.50;;;16.52;100.00;95472.56;5031649;28;20329;-46
2023/09/17 01:11:07;;;;;;;;;;;20.60;61.50;;;16.51;100.00;95465.59;5028435;28;20015;-45
2023/09/17 01:13:47;;;;;;;;;;;20.60;61.50;;;16.51;100.00;95471.75;5029996;28;19947;-46
2023/09/17 01:16:13;;;;;;;;;;;20.60;61.50;;;16.52;100.00;95467.19;5027505;28;19912;-45
2023/09/17 01:18:39;;;;;;;;;;;20.60;61.50;;;16.53;100.00;95466.09;5031425;28;19969;-45
2023/09/17 01:21:52;;;;;;;;;;;20.60;61.60;;;16.54;100.00;95473.84;5027304;28;19967;-45
2023/09/17 01:24:43;;;;;;;;;;;20.60;61.60;;;16.55;100.00;95472.75;4999818;28;20003;-47
2023/09/17 01:27:12;;;;;;;;;;;20.60;61.60;;;16.57;100.00;95469.75;5028888;28;19919;-46
2023/09/17 01:29:42;;;;;;;;;;;20.60;61.70;;;16.57;100.00;95472.44;5031015;28;19912;-45
2023/09/17 01:32:11;;;;;;;;;;;20.60;61.70;;;16.58;100.00;95471.34;5030938;28;19966;-48
2023/09/17 01:34:43;;;;;;;;;;;20.60;61.70;;;16.59;100.00;95462.97;5026817;28;19909;-46
2023/09/17 01:37:35;;;;;;;;;;;20.70;61.90;;;16.62;100.00;95469.63;5030106;28;19946;-46
2023/09/17 01:40:11;;;;;;;;;;;20.70;61.90;;;16.64;100.00;95467.44;5027697;28;19909;-46
2023/09/17 01:42:43;;;;;;;;;;;20.70;61.90;;;16.64;100.00;95465.53;5016857;28;19923;-46
2023/09/17 01:45:16;;;;;;;;;;;20.70;61.90;;;16.63;100.00;95469.31;5021427;28;19909;-47
2023/09/17 01:47:46;;;;;;;;;;;20.70;61.90;;;16.64;100.00;95467.44;5030493;28;19908;-46
2023/09/17 01:50:15;;;;;;;;;;;20.70;62.00;;;16.64;100.00;95473.63;5029901;28;19938;-46
2023/09/17 01:52:44;;;;;;;;;;;20.70;62.00;;;16.68;100.00;95476.47;5011360;28;20279;-47
2023/09/17 01:55:10;;;;;;;;;;;20.70;62.00;;;16.68;100.00;95473.78;5030512;28;19908;-48
2023/09/17 01:57:37;;;;;;;;;;;20.70;62.00;;;16.69;100.00;95471.91;5028019;28;19916;-45
2023/09/17 02:00:19;;;;;;;;;;;20.70;62.00;;;16.70;100.00;95473.47;5029487;28;20384;-48
2023/09/17 02:02:52;;;;;;;;;;;20.70;62.00;;;16.70;100.00;95476.16;5022859;28;19909;-47
2023/09/17 02:05:24;;;;;;;;;;;20.70;62.00;;;16.70;100.00;95479.63;5002538;28;20359;-46
2023/09/17 02:07:51;;;;;;;;;;;20.80;62.10;;;16.72;100.00;95480.13;5030219;28;19925;-49
2023/09/17 02:10:16;;;;;;;;;;;20.80;62.20;;;16.73;100.00;95479.03;5028113;28;19913;-47
2023/09/17 02:12:42;;;;;;;;;;;20.80;62.10;;;16.74;100.00;95490.59;5030654;28;19909;-46
2023/09/17 02:15:09;;;;;;;;;;;20.80;62.20;;;16.74;100.00;95488.72;5027869;28;20378;-52
2023/09/17 02:17:35;;;;;;;;;;;20.80;62.10;;;16.74;100.00;95488.72;5029814;28;19969;-47
2023/09/17 02:20:01;;;;;;;;;;;20.80;62.20;;;16.75;100.00;95490.31;5030133;28;19912;-46
2023/09/17 02:22:26;;;;;;;;;;;20.80;62.10;;;16.74;100.00;95496.78;5027218;28;19916;-47
2023/09/17 02:24:52;;;;;;;;;;;20.80;62.20;;;16.76;100.00;95499.19;5029928;28;20015;-46
2023/09/17 02:27:18;;;;;;;;;;;20.80;62.20;;;16.76;100.00;95493.81;5028239;28;20596;-51
2023/09/17 02:29:43;;;;;;;;;;;20.80;62.30;;;16.77;100.00;95490.81;5030220;28;20290;-50
2023/09/17 02:32:10;;;;;;;;;;;20.80;62.30;;;16.72;100.00;95498.19;5030147;28;19909;-46
2023/09/17 02:34:38;;;;;;;;;;;20.80;62.30;;;16.70;100.00;95482.34;5019333;28;20393;-46
2023/09/17 02:37:04;;;;;;;;;;;20.80;62.30;;;16.74;100.00;95491.41;5030228;28;20386;-46
2023/09/17 02:39:29;;;;;;;;;;;20.80;62.30;;;16.71;100.00;95488.53;5027456;28;19909;-46
2023/09/17 02:41:55;;;;;;;;;;;20.80;62.40;;;16.73;100.00;95492.47;5030472;28;19932;-47
2023/09/17 02:44:21;;;;;;;;;;;20.80;62.40;;;16.71;100.00;95491.22;5029301;28;19931;-49
2023/09/17 02:46:47;;;;;;;;;;;20.80;62.40;;;16.69;100.00;95488.03;5012982;28;19919;-50
2023/09/17 02:49:13;;;;;;;;;;;20.80;62.40;;;16.71;100.00;95485.84;5010408;28;19909;-49
2023/09/17 02:51:39;;;;;;;;;;;20.80;62.50;;;16.71;100.00;95486.63;5008958;28;19928;-48
2023/09/17 02:54:05;;;;;;;;;;;20.80;62.60;;;16.69;100.00;95486.13;5009871;28;19999;-51
2023/09/17 02:56:31;;;;;;;;;;;20.70;62.50;;;16.68;100.00;95486.44;5010177;28;19959;-46
2023/09/17 02:58:57;;;;;;;;;;;20.80;62.60;;;16.67;100.00;95477.56;5009059;28;20404;-47
2023/09/17 03:01:24;;;;;;;;;;;20.70;62.50;;;16.65;100.00;95477.88;5010087;28;20019;-48
2023/09/17 03:03:53;;;;;;;;;;;20.70;62.60;;;16.64;100.00;95473.63;5008959;28;19909;-47
2023/09/17 03:06:18;;;;;;;;;;;20.70;62.60;;;16.66;100.00;95473.28;5009957;28;19917;-48
2023/09/17 03:08:44;;;;;;;;;;;20.70;62.70;;;16.65;100.00;95471.72;5010173;28;20271;-48
2023/09/17 03:11:17;;;;;;;;;;;20.70;62.70;;;16.62;100.00;95467.72;5008596;28;20650;-47
2023/09/17 03:13:47;;;;;;;;;;;20.70;62.70;;;16.59;100.00;95470.25;5013487;28;20036;-50
2023/09/17 03:16:15;;;;;;;;;;;20.70;62.70;;;16.55;100.00;95464.69;5011856;28;19909;-51
2023/09/17 03:18:44;;;;;;;;;;;20.70;62.70;;;16.52;100.00;95475.25;5013858;28;20343;-46
2023/09/17 03:21:12;;;;;;;;;;;20.60;62.70;;;16.49;100.00;95475.88;5011452;28;19912;-47
2023/09/17 03:23:38;;;;;;;;;;;20.60;62.70;;;16.48;100.00;95471.56;5012491;28;20007;-48
2023/09/17 03:26:05;;;;;;;;;;;20.60;62.80;;;16.44;100.00;95471.38;5013767;28;19909;-46
2023/09/17 03:28:32;;;;;;;;;;;20.60;62.80;;;16.41;100.00;95466.63;5011121;28;19913;-51
2023/09/17 03:30:59;;;;;;;;;;;20.50;62.80;;;16.36;100.00;95472.13;5013836;28;19917;-50
2023/09/17 03:33:25;;;;;;;;;;;20.50;62.80;;;16.32;100.00;95471.13;5010585;28;19909;-48
2023/09/17 03:35:51;;;;;;;;;;;20.50;62.80;;;16.31;100.00;95486.47;5013502;28;19939;-48
2023/09/17 03:38:18;;;;;;;;;;;20.50;63.70;;;16.28;100.00;95479.00;5013834;28;19920;-48
2023/09/17 03:40:44;;;;;;;;;;;20.40;63.80;;;16.27;100.00;95477.41;5011442;28;19909;-47
2023/09/17 03:43:10;;;;;;;;;;;20.40;63.00;;;16.27;100.00;95482.00;5013056;28;19960;-46
2023/09/17 03:45:36;;;;;;;;;;;20.40;63.10;;;16.24;100.00;95472.66;5010936;28;20261;-48
2023/09/17 03:48:04;;;;;;;;;;;20.40;63.20;;;16.28;100.00;95486.28;5013015;28;19916;-46
2023/09/17 03:50:31;;;;;;;;;;;20.40;63.30;;;16.28;100.00;95487.06;5013620;28;20282;-46
2023/09/17 03:53:02;;;;;;;;;;;20.40;63.30;;;16.25;100.00;95489.56;5012339;28;19909;-47
2023/09/17 03:55:28;;;;;;;;;;;20.40;63.30;;;16.25;100.00;95493.03;5010451;28;20277;-47
2023/09/17 03:57:56;;;;;;;;;;;20.40;63.30;;;16.25;100.00;95489.56;5011592;28;19909;-47
2023/09/17 04:00:23;;;;;;;;;;;20.30;63.20;;;16.23;100.00;95481.00;5010151;28;19909;-47
2023/09/17 04:02:52;;;;;;;;;;;20.40;63.30;;;16.20;100.00;95490.47;5013421;28;20478;-51
2023/09/17 04:05:18;;;;;;;;;;;20.30;63.20;;;16.20;100.00;95487.78;5010482;28;19935;-50
2023/09/17 04:07:46;;;;;;;;;;;20.30;63.30;;;16.19;100.00;95491.56;5012696;28;19924;-47
2023/09/17 04:10:14;;;;;;;;;;;20.30;63.30;;;16.17;100.00;95489.19;5011942;28;19917;-49
2023/09/17 04:12:43;;;;;;;;;;;20.30;63.30;;;16.14;100.00;95489.00;5012872;28;20419;-50
2023/09/17 04:15:22;;;;;;;;;;;20.30;63.40;;;16.15;100.00;95490.59;5011363;28;19916;-46
2023/09/17 04:17:53;;;;;;;;;;;20.30;63.50;;;16.14;100.00;95486.31;5017136;28;19952;-49
2023/09/17 04:20:20;;;;;;;;;;;20.30;63.50;;;16.16;100.00;95484.91;5010491;28;19919;-47
2023/09/17 04:22:50;;;;;;;;;;;20.30;64.30;;;16.16;100.00;95492.16;5021006;28;19948;-53
2023/09/17 04:25:19;;;;;;;;;;;20.30;63.50;;;16.14;100.00;95489.78;5014971;28;19955;-46
2023/09/17 04:27:46;;;;;;;;;;;20.30;63.60;;;16.16;100.00;95494.84;5011845;28;19916;-47
2023/09/17 04:30:14;;;;;;;;;;;20.30;63.60;;;16.17;100.00;95496.47;5011606;28;19920;-50
2023/09/17 04:32:43;;;;;;;;;;;20.30;63.70;;;16.18;100.00;95495.34;5014440;28;20307;-48
2023/09/17 04:35:15;;;;;;;;;;;20.30;63.70;;;16.16;100.00;95498.34;5011790;28;19909;-47
2023/09/17 04:37:41;;;;;;;;;;;20.30;63.70;;;16.19;100.00;95497.72;5012334;28;19957;-47
2023/09/17 04:40:09;;;;;;;;;;;20.30;63.70;;;16.21;100.00;95500.13;5011162;28;20349;-47
2023/09/17 04:42:40;;;;;;;;;;;20.30;63.70;;;16.19;100.00;95505.78;5004756;28;19962;-46
2023/09/17 04:45:08;;;;;;;;;;;20.30;63.80;;;16.22;100.00;95504.41;5012402;28;19932;-46
2023/09/17 04:47:36;;;;;;;;;;;20.40;63.80;;;16.26;100.00;95504.59;5004232;28;19916;-51
2023/09/17 04:50:08;;;;;;;;;;;20.30;63.80;;;16.19;100.00;95505.78;5012086;28;19916;-50
2023/09/17 04:52:35;;;;;;;;;;;20.30;63.80;;;16.29;100.00;95506.66;5011548;28;19909;-46
2023/09/17 04:55:02;;;;;;;;;;;20.40;63.90;;;16.32;100.00;95503.38;5011964;28;20384;-46
2023/09/17 04:57:28;;;;;;;;;;;20.40;63.90;;;16.38;100.00;95502.97;5008567;28;19923;-46
2023/09/17 04:59:53;;;;;;;;;;;20.40;63.90;;;16.39;100.00;95507.25;5009028;28;19909;-48
2023/09/17 05:02:21;;;;;;;;;;;20.50;63.90;;;16.44;100.00;95511.72;5012050;28;20007;-48
2023/09/17 05:04:47;;;;;;;;;;;20.50;63.90;;;16.49;100.00;95516.19;5011473;28;19919;-49
2023/09/17 05:07:14;;;;;;;;;;;20.50;63.80;;;16.48;100.00;95512.69;5011639;28;19920;-46
2023/09/17 05:09:40;;;;;;;;;;;20.50;63.70;;;16.50;100.00;95512.41;5010996;28;19913;-46
2023/09/17 05:12:08;;;;;;;;;;;20.50;63.70;;;16.45;100.00;95510.59;5011667;28;19920;-47
2023/09/17 05:14:34;;;;;;;;;;;20.60;63.70;;;16.47;100.00;95507.63;5008965;28;19916;-47
2023/09/17 05:17:00;;;;;;;;;;;20.60;63.70;;;16.44;100.00;95509.03;5016362;28;19988;-46
2023/09/17 05:19:26;;;;;;;;;;;20.50;63.60;;;16.41;100.00;95504.25;5012301;28;20000;-48
2023/09/17 05:21:52;;;;;;;;;;;20.50;63.60;;;16.40;100.00;95508.03;5010678;28;19917;-49
2023/09/17 05:24:17;;;;;;;;;;;20.50;63.50;;;16.38;100.00;95513.72;5011262;28;19921;-45
2023/09/17 05:26:43;;;;;;;;;;;20.60;63.60;;;16.36;100.00;95513.25;5011542;28;19952;-47
2023/09/17 05:29:12;;;;;;;;;;;20.50;63.60;;;16.39;100.00;95515.31;5010457;28;19913;-46
2023/09/17 05:31:38;;;;;;;;;;;20.60;63.60;;;16.38;100.00;95521.78;5011295;28;20295;-45
2023/09/17 05:34:03;;;;;;;;;;;20.60;63.60;;;16.36;100.00;95518.63;5009535;28;19963;-45
2023/09/17 05:36:30;;;;;;;;;;;20.60;63.60;;;16.35;100.00;95521.59;5010962;28;19912;-45
2023/09/17 05:38:57;;;;;;;;;;;20.60;63.50;;;16.26;100.00;95523.41;5011259;28;19909;-46
2023/09/17 05:41:23;;;;;;;;;;;20.60;63.50;;;16.28;100.00;95518.53;5010215;28;19909;-45
2023/09/17 05:43:48;;;;;;;;;;;20.60;63.40;;;16.28;100.00;95531.97;5011024;28;19909;-46
2023/09/17 05:46:14;;;;;;;;;;;20.70;63.50;;;16.32;100.00;95519.50;5009595;28;19963;-50
2023/09/17 05:48:40;;;;;;;;;;;20.70;63.50;;;16.35;100.00;95518.91;5010752;28;19913;-49
2023/09/17 05:51:07;;;;;;;;;;;20.70;63.50;;;16.37;100.00;95516.72;5009718;28;20004;-48
2023/09/17 05:53:33;;;;;;;;;;;20.70;64.20;;;16.41;100.00;95525.75;5011065;28;19909;-46
2023/09/17 05:56:01;;;;;;;;;;;20.80;63.50;;;16.45;100.00;95515.19;5012560;28;19909;-47
2023/09/17 05:58:27;;;;;;;;;;;20.80;63.40;;;16.43;100.00;95523.56;5010498;28;19921;-46
2023/09/17 06:00:53;;;;;;;;;;;20.90;63.40;;;16.52;100.00;95520.97;5011366;28;19963;-45
2023/09/17 06:03:19;;;;;;;;;;;20.90;63.30;;;16.58;100.00;95512.47;5009701;28;20659;-49
2023/09/17 06:05:44;;;;;;;;;;;20.90;63.30;;;16.61;100.00;95514.56;5010476;28;19909;-51
2023/09/17 06:08:10;;;;;;;;;;;21.00;63.30;;;16.63;100.00;95511.56;4990082;28;19956;-45
2023/09/17 06:10:36;;;;;;;;;;;21.00;63.30;;;16.68;100.00;95510.66;5009876;28;20273;-46
2023/09/17 06:13:02;;;;;;;;;;;21.00;63.20;;;16.70;100.00;95506.53;5006168;28;20368;-50
2023/09/17 06:15:28;;;;;;;;;;;21.10;63.20;;;16.73;100.00;95511.31;5008371;28;19947;-45
2023/09/17 06:17:53;;;;;;;;;;;21.20;63.10;;;16.76;100.00;95513.41;5010519;28;19936;-47
2023/09/17 06:20:19;;;;;;;;;;;21.20;63.00;;;16.80;100.00;95516.31;5010596;28;19916;-48
2023/09/17 06:22:47;;;;;;;;;;;21.30;63.00;;;16.86;100.00;95515.09;5008736;28;19966;-46
2023/09/17 06:25:14;;;;;;;;;;;21.30;62.90;;;16.96;100.00;95519.44;5007372;28;19955;-47
2023/09/17 06:27:40;;;;;;;;;;;21.40;62.90;;;17.04;100.00;95516.78;5009607;28;20436;-46
2023/09/17 06:30:06;;;;;;;;;;;21.50;62.80;;;17.17;100.00;95520.50;5010563;28;19936;-45
2023/09/17 06:32:33;;;;;;;;;;;21.70;62.70;;;17.41;100.00;95522.06;5010193;28;19909;-47
2023/09/17 06:34:58;;;;;;;;;;;22.00;62.70;;;17.62;100.00;95516.94;4991645;28;19948;-46
2023/09/17 06:37:24;;;;;;;;;;;22.30;62.50;;;17.96;100.00;95521.69;5010430;28;20003;-47
2023/09/17 06:39:50;;;;;;;;;;;22.70;62.40;;;18.36;100.00;95522.38;5009287;28;19917;-47
2023/09/17 06:42:16;;;;;;;;;;;23.10;62.20;;;18.62;96.80;95529.72;5010673;28;19955;-48
2023/09/17 06:44:42;;;;;;;;;;;23.40;61.80;;;18.82;93.13;95512.94;5008856;28;20712;-47
2023/09/17 06:47:07;;;;;;;;;;;23.80;61.50;;;19.22;95.53;95520.03;5015277;28;20268;-47
2023/09/17 06:49:34;;;;;;;;;;;24.10;61.00;;;19.52;90.87;95520.88;5013667;28;19913;-45
2023/09/17 06:51:59;;;;;;;;;;;24.40;60.80;;;19.78;89.95;95520.84;5008629;28;19913;-46
2023/09/17 06:54:25;;;;;;;;;;;24.70;60.40;;;19.99;84.25;95521.69;5013896;28;20288;-48
2023/09/17 06:56:52;;;;;;;;;;;25.00;60.00;;;20.18;82.46;95521.28;5014253;28;20367;-45
2023/09/17 06:59:18;;;;;;;;;;;25.30;59.60;;;20.60;83.92;95528.69;5013357;28;19920;-47
2023/09/17 07:01:45;;;;;;;;;;;25.60;59.30;;;20.92;76.87;95530.63;5014326;28;19909;-48
2023/09/17 07:04:11;;;;;;;;;;;25.90;59.00;;;21.29;73.18;95532.69;5012599;28;19960;-50
2023/09/17 07:06:37;;;;;;;;;;;26.30;58.80;;;21.70;72.95;95532.59;5007829;28;19962;-48
2023/09/17 07:09:03;;;;;;;;;;;26.70;58.50;;;22.13;69.19;95533.19;5023823;28;20291;-46
2023/09/17 07:11:29;;;;;;;;;;;27.10;58.10;;;22.43;66.83;95527.53;5013350;28;19921;-48
2023/09/17 07:13:56;;;;;;;;;;;27.50;57.80;;;22.75;65.88;95536.63;5013852;28;20368;-46
2023/09/17 07:16:23;;;;;;;;;;;27.80;57.30;;;23.03;64.52;95542.13;5013535;28;19912;-49
2023/09/17 07:18:50;;;;;;;;;;;28.20;56.80;;;23.18;61.65;95546.81;5020195;28;19949;-51
2023/09/17 07:21:16;;;;;;;;;;;28.60;57.00;;;23.42;61.27;95548.63;5012888;28;19958;-48
2023/09/17 07:23:42;;;;;;;;;;;28.90;55.80;;;23.81;61.45;95550.81;5010943;28;19913;-51
2023/09/17 07:26:09;;;;;;;;;;;29.30;55.40;;;24.08;59.44;95541.00;5013256;28;20364;-50
2023/09/17 07:28:36;;;;;;;;;;;29.50;54.90;;;24.35;59.63;95547.44;5005233;28;19916;-49
2023/09/17 07:31:04;;;;;;;;;;;29.80;54.50;;;24.57;58.88;95541.41;5013812;28;20269;-51
2023/09/17 07:33:30;;;;;;;;;;;30.10;54.10;;;24.90;56.94;95538.19;5011925;28;19916;-50
2023/09/17 07:35:56;;;;;;;;;;;30.50;53.80;;;25.23;55.48;95536.13;4995756;28;19909;-49
2023/09/17 07:38:22;;;;;;;;;;;30.80;53.40;;;25.41;56.59;95540.00;5010774;28;20020;-50
2023/09/17 07:40:48;;;;;;;;;;;31.00;52.90;;;25.66;54.93;95528.75;5013589;28;19917;-46
2023/09/17 07:43:13;;;;;;;;;;;31.40;52.40;;;25.78;53.79;95528.59;5013324;28;19916;-52
2023/09/17 07:45:39;;;;;;;;;;;31.60;52.10;;;26.17;53.67;95531.22;5013335;28;20409;-46
2023/09/17 07:48:05;;;;;;;;;;;31.90;51.50;;;26.44;53.09;95530.06;5016132;28;19909;-47
2023/09/17 07:50:31;;;;;;;;;;;32.20;51.10;;;26.57;52.48;95533.38;5018879;28;19919;-48
2023/09/17 07:52:57;;;;;;;;;;;32.30;50.60;;;26.70;52.93;95534.75;5012466;28;19912;-47
2023/09/17 07:55:23;;;;;;;;;;;32.40;50.10;;;26.63;52.88;95534.66;5020844;28;19916;-46
2023/09/17 07:57:48;;;;;;;;;;;32.50;49.80;;;26.75;53.24;95536.38;5011188;28;19909;-48
2023/09/17 08:00:15;;;;;;;;;;;32.60;49.60;;;26.90;53.01;95529.94;5012795;28;20355;-47
2023/09/17 08:02:44;;;;;;;;;;;32.60;49.40;;;26.84;53.54;95519.72;5013182;28;19913;-49
2023/09/17 08:05:11;;;;;;;;;;;32.60;49.10;;;26.86;53.32;95526.38;5011507;28;19917;-52
2023/09/17 08:07:37;;;;;;;;;;;32.60;48.90;;;26.87;51.43;95530.69;5012769;28;20003;-48
2023/09/17 08:10:06;;;;;;;;;;;32.60;48.80;;;27.13;51.27;95532.56;5019260;28;20000;-49
2023/09/17 08:12:33;;;;;;;;;;;32.60;48.70;;;27.39;52.97;95533.66;5011749;28;19909;-45
2023/09/17 08:14:59;;;;;;;;;;;32.70;48.60;;;27.57;50.35;95531.91;5012766;28;19916;-46
2023/09/17 08:17:25;;;;;;;;;;;33.00;48.50;;;27.61;51.15;95532.75;5022397;28;20282;-51
2023/09/17 08:19:51;;;;;;;;;;;33.10;48.10;;;27.53;51.44;95533.81;5021005;28;20462;-52
2023/09/17 08:22:17;;;;;;;;;;;33.30;47.60;;;27.78;51.59;95530.56;5023009;28;19917;-50
2023/09/17 08:24:43;;;;;;;;;;;33.40;47.50;;;27.97;50.89;95524.09;5029070;28;20318;-48
2023/09/17 08:27:09;;;;;;;;;;;33.50;47.20;;;28.20;49.51;95532.88;5030645;28;19909;-47
2023/09/17 08:29:35;;;;;;;;;;;33.70;47.10;;;28.18;48.87;95537.97;5031003;28;19962;-47
2023/09/17 08:32:03;;;;;;;;;;;33.90;46.80;;;28.32;49.13;95538.06;5032406;28;20298;-49
2023/09/17 08:34:29;;;;;;;;;;;33.90;46.50;;;28.51;48.27;95530.78;5026854;28;19923;-49
2023/09/17 08:36:55;;;;;;;;;;;34.00;46.20;;;28.70;47.28;95535.97;5028404;28;19913;-49
2023/09/17 08:39:21;;;;;;;;;;;34.20;46.00;;;29.00;47.28;95543.97;5029213;28;19908;-47
2023/09/17 08:41:48;;;;;;;;;;;34.40;45.80;;;29.25;45.43;95532.38;5014664;28;19966;-49
2023/09/17 08:44:17;;;;;;;;;;;34.60;45.70;;;29.27;44.56;95530.00;5029621;28;19917;-47
2023/09/17 08:46:44;;;;;;;;;;;34.80;45.30;;;29.35;44.25;95530.81;5021394;28;19915;-47
2023/09/17 08:49:10;;;;;;;;;;;34.90;45.10;;;29.30;44.70;95529.22;5031918;28;19951;-47
2023/09/17 08:51:41;;;;;;;;;;;35.10;44.80;;;29.43;45.38;95524.97;5027204;28;19939;-50
2023/09/17 08:54:33;;;;;;;;;;;35.10;44.40;;;29.74;45.88;95528.19;5030707;28;19912;-50
2023/09/17 08:57:03;;;;;;;;;;;35.30;44.30;;;29.78;45.12;95526.25;5030827;28;19909;-47
2023/09/17 08:59:33;;;;;;;;;;;35.40;44.10;;;29.74;45.81;95529.00;5015837;28;19927;-47
2023/09/17 09:02:07;;;;;;;;;;;35.60;44.00;;;30.10;45.56;95520.00;5015749;28;19921;-49
2023/09/17 09:04:37;;;;;;;;;;;35.80;43.80;;;30.31;44.14;95527.47;5023329;28;20008;-47
2023/09/17 09:07:05;;;;;;;;;;;36.00;43.60;;;30.34;43.50;95524.72;5022187;28;20376;-49
2023/09/17 09:09:34;;;;;;;;;;;36.20;43.20;;;30.48;43.90;95514.88;5023773;28;20509;-46
2023/09/17 09:12:00;;;;;;;;;;;36.40;42.90;;;30.43;43.95;95519.63;5012105;28;19920;-49
2023/09/17 09:14:27;;;;;;;;;;;36.50;42.40;;;30.55;43.24;95510.16;5009155;28;19913;-49
2023/09/17 09:16:54;;;;;;;;;;;36.60;42.20;;;30.70;42.68;95510.91;5020552;28;19969;-49
2023/09/17 09:19:20;;;;;;;;;;;36.60;42.00;;;30.80;43.26;95507.38;5031540;28;20454;-49
2023/09/17 09:21:45;;;;;;;;;;;36.60;42.00;;;30.64;43.36;95507.78;5025675;28;20119;-52
2023/09/17 09:24:11;;;;;;;;;;;36.60;41.80;;;30.63;43.57;95502.69;5004285;28;20003;-48
2023/09/17 09:26:39;;;;;;;;;;;36.60;41.70;;;30.61;44.53;95505.81;5031237;28;19962;-49
2023/09/17 09:29:06;;;;;;;;;;;36.60;41.70;;;30.63;44.25;95503.47;5023019;28;19909;-47
2023/09/17 09:31:34;;;;;;;;;;;36.50;41.70;;;30.41;45.33;95496.47;5031273;28;20322;-51
2023/09/17 09:34:02;;;;;;;;;;;36.50;41.60;;;30.69;44.66;95487.38;5026594;28;19938;-47
2023/09/17 09:36:32;;;;;;;;;;;36.50;41.60;;;30.73;44.68;95493.63;5030639;28;20006;-48
2023/09/17 09:38:58;;;;;;;;;;;36.50;41.60;;;30.69;44.49;95497.56;5031314;28;19909;-48
2023/09/17 09:41:25;;;;;;;;;;;36.50;41.50;;;30.57;44.76;95494.06;5011835;28;19909;-48
2023/09/17 09:43:53;;;;;;;;;;;36.60;41.30;;;30.77;43.93;95493.59;5027275;28;19908;-53
2023/09/17 09:46:19;;;;;;;;;;;36.70;41.10;;;30.99;44.04;95495.13;5021396;28;19948;-52
2023/09/17 09:48:46;;;;;;;;;;;36.80;40.90;;;31.14;44.18;95492.31;5031019;28;19913;-49
2023/09/17 09:51:16;;;;;;;;;;;37.00;40.90;;;31.15;43.33;95489.19;5029430;28;19912;-50
2023/09/17 09:53:42;;;;;;;;;;;37.20;40.60;;;31.17;43.81;95477.78;5028596;28;19944;-48
2023/09/17 09:56:08;;;;;;;;;;;37.40;40.40;;;31.27;43.63;95477.72;5030543;28;19916;-48
2023/09/17 09:58:36;;;;;;;;;;;37.50;40.20;;;31.05;42.66;95473.50;5028543;28;20004;-53
2023/09/17 10:01:04;;;;;;;;;;;37.60;39.90;;;30.84;42.89;95469.69;5030846;28;19916;-48
2023/09/17 10:03:30;;;;;;;;;;;37.60;39.80;;;30.98;43.27;95474.31;5027189;28;19916;-48
2023/09/17 10:06:06;;;;;;;;;;;37.50;39.60;;;31.30;42.85;95476.91;5004237;28;19909;-52
2023/09/17 10:08:37;;;;;;;;;;;37.60;39.70;;;31.39;41.97;95468.25;5030151;28;19934;-48
2023/09/17 10:11:05;;;;;;;;;;;37.60;39.60;;;31.37;42.72;95470.63;5017739;28;20094;-48
2023/09/17 10:13:33;;;;;;;;;;;37.70;39.50;;;31.44;42.67;95467.84;5025619;28;19909;-47
2023/09/17 10:16:01;;;;;;;;;;;37.70;39.30;;;31.45;42.02;95466.63;5023116;28;19909;-51
2023/09/17 10:18:29;;;;;;;;;;;37.70;39.20;;;31.38;42.50;95463.16;5029394;28;20437;-47
2023/09/17 10:20:56;;;;;;;;;;;37.80;39.20;;;31.30;42.26;95459.63;5024907;28;19936;-52
2023/09/17 10:23:24;;;;;;;;;;;37.90;39.00;;;31.05;42.23;95463.28;5022179;28;19955;-48
2023/09/17 10:25:51;;;;;;;;;;;37.90;38.70;;;31.05;42.69;95460.53;5030005;28;19966;-50
2023/09/17 10:28:19;;;;;;;;;;;38.00;38.60;;;31.00;43.71;95460.97;5024185;28;19913;-46
2023/09/17 10:30:47;;;;;;;;;;;38.10;38.30;;;30.89;43.03;95461.00;5023296;28;20390;-46
2023/09/17 10:33:16;;;;;;;;;;;38.00;37.90;;;30.88;42.74;95464.94;5027734;28;20011;-53
2023/09/17 10:35:44;;;;;;;;;;;38.10;37.80;;;31.20;42.26;95452.22;5002893;28;20334;-48
2023/09/17 10:38:14;;;;;;;;;;;38.20;37.90;;;31.15;42.62;95455.38;5022990;28;19935;-50
2023/09/17 10:40:41;;;;;;;;;;;38.20;37.60;;;31.25;42.22;95451.81;5019397;28;20046;-52
2023/09/17 10:43:07;;;;;;;;;;;38.30;37.40;;;31.43;42.40;95446.22;5028604;28;20099;-49
2023/09/17 10:45:39;;;;;;;;;;;38.40;37.30;;;31.89;42.26;95447.88;5026365;28;19921;-51
2023/09/17 10:48:08;;;;;;;;;;;38.60;37.30;;;32.22;41.25;95446.41;5028420;28;19917;-49
2023/09/17 10:50:35;;;;;;;;;;;38.90;37.20;;;32.25;39.55;95440.84;5029119;28;19913;-49
2023/09/17 10:53:01;;;;;;;;;;;39.20;37.00;;;32.11;40.46;95432.72;5019827;28;19915;-46
2023/09/17 10:55:36;;;;;;;;;;;39.40;36.60;;;32.32;40.44;95441.97;5027611;28;19909;-46
2023/09/17 10:58:14;;;;;;;;;;;39.60;36.40;;;32.44;39.74;95427.72;4996873;28;19909;-50
2023/09/17 11:00:42;;;;;;;;;;;39.70;36.30;;;32.48;39.90;95431.19;5008780;28;19917;-49
2023/09/17 11:03:13;;;;;;;;;;;39.80;36.20;;;32.64;40.08;95422.34;5029867;28;20346;-47
2023/09/17 11:05:40;;;;;;;;;;;39.80;36.00;;;32.74;39.95;95424.19;5005758;28;19909;-48
2023/09/17 11:08:08;;;;;;;;;;;40.00;36.00;;;32.61;40.44;95425.94;5026075;28;20390;-48
2023/09/17 11:10:34;;;;;;;;;;;40.00;35.80;;;32.26;40.16;95411.31;5020556;28;20319;-54
2023/09/17 11:13:00;;;;;;;;;;;39.90;35.70;;;32.15;40.41;95416.16;5023520;28;19909;-51